Santa Teresa Valley (237) Station Data

Red Flag Warning: No
Fire Weather Zone: 250
SDGE Region: Ramona
Lat/Lon: 33.069/-116.762

Observations

Time Wind Speed/Gust Temp(F) RH Fuel Moist Fuel Temp(F) Dewpt(F) Tmax(F) Tmin(F) Accum Precip 10-min Precip SL Press(mb)
5/24 8:20am 100 3 G 5 70° 41% - - 45° 70.6° 63.3° - - -
5/24 8:10am 72 3 G 7 69° 42% - - 45° 70.5° 63.3° - - -
5/24 8:00am 54 5 G 7 66° 52% - - 48° 70.1° 63.3° - - -
5/24 7:50am 60 4 G 6 65° 52% - - 47° 70.1° 63.3° - - -
5/24 7:40am 359 2 G 4 64° 54% - - 47° 70.1° 63.3° - - -
5/24 7:30am 264 3 G 6 64° 54% - - 47° 70.1° 63.3° - - -
5/24 7:20am 220 3 G 7 68° 46% - - 47° 70.1° 63.5° - - -
5/24 7:10am 205 1 G 2 67° 46% - - 45° 70.1° 63.5° - - -
5/24 7:00am 170 1 G 4 68° 44% - - 46° 70.1° 63.5° - - -
5/24 6:50am 58 1 G 3 69° 41% - - 45° 70.1° 63.5° - - -
5/24 6:40am 64 3 G 5 70° 39% - - 44° 70.1° 63.5° - - -
5/24 6:30am 60 4 G 6 69° 40% - - 43° 69.9° 63.5° - - -
5/24 6:20am 53 5 G 7 68° 40% - - 43° 69.5° 63.5° - - -
5/24 6:10am 62 4 G 6 67° 41% - - 43° 69.4° 63.5° - - -
5/24 6:00am 48 5 G 7 66° 42% - - 42° 69.4° 63.5° - - -
5/24 5:50am 66 5 G 8 65° 43% - - 43° 69.4° 63.5° - - -
5/24 5:40am 49 6 G 8 66° 42% - - 42° 69.4° 63.5° - - -
5/24 5:30am 49 6 G 8 66° 41% - - 42° 69.4° 63.5° - - -
5/24 5:20am 46 5 G 8 66° 41% - - 41° 69.4° 63.5° - - -
5/24 5:10am 52 5 G 6 66° 42% - - 43° 69.4° 63.5° - - -
5/24 5:00am 42 4 G 5 67° 43% - - 44° 69.4° 63.5° - - -
5/24 4:50am 52 3 G 4 66° 47% - - 45° 69.4° 63.5° - - -
5/24 4:40am 65 3 G 5 65° 49% - - 46° 69.4° 63.5° - - -
5/24 4:30am 61 3 G 3 64° 51% - - 46° 69.4° 63.5° - - -
5/24 4:20am 84 1 G 3 65° 51% - - 46° 69.4° 63.7° - - -
5/24 4:10am 144 1 G 1 65° 53% - - 47° 69.4° 64.4° - - -
5/24 4:00am 155 0 G 2 66° 50% - - 47° 69.4° 64.9° - - -
5/24 3:50am 74 0 G 1 67° 50% - - 48° 69.4° 65.1° - - -
5/24 3:40am 71 0 G 1 67° 51% - - 48° 69.4° 65.1° - - -
5/24 3:30am 85 1 G 1 66° 53% - - 48° 69.4° 65.1° - - -
5/24 3:20am 127 1 G 1 66° 56% - - 50° 69.4° 65.2° - - -
5/24 3:10am 133 1 G 2 67° 56% - - 50° 69.4° 65.4° - - -
5/24 3:00am 0 0 G 0 67° 51% - - 49° 69.4° 66.2° - - -
5/24 2:50am 137 0 G 2 68° 52% - - 50° 69.4° 66.2° - - -
5/24 2:40am 131 1 G 2 68° 55% - - 51° 69.4° 66.2° - - -
5/24 2:30am 158 2 G 2 67° 56% - - 51° 69.4° 66.2° - - -
5/24 2:20am 104 2 G 4 68° 55% - - 51° 69.4° 66.2° - - -
5/24 2:10am 58 4 G 6 69° 54% - - 52° 69.4° 66.2° - - -
5/24 2:00am 54 5 G 6 68° 53% - - 50° 69.4° 66.2° - - -
5/24 1:50am 56 4 G 6 69° 50% - - 49° 69.4° 66.2° - - -
5/24 1:40am 59 5 G 7 67° 54% - - 50° 69.3° 66.2° - - -
5/24 1:30am 61 5 G 8 68° 55% - - 51° 69.3° 66.5° - - -
5/24 1:20am 46 5 G 7 68° 55% - - 51° 69.3° 66.5° - - -
5/24 1:10am 49 5 G 7 68° 54% - - 51° 69.3° 66.5° - - -
5/24 1:00am 48 3 G 4 69° 53% - - 51° 69.3° 66.5° - - -
5/24 12:50am 43 4 G 6 68° 56% - - 51° 69° 66.5° - - -
5/24 12:40am 95 2 G 3 67° 57% - - 51° 69° 66.5° - - -
5/24 12:30am 63 2 G 3 68° 55% - - 51° 69° 66.7° - - -
5/24 12:20am 72 2 G 3 68° 54% - - 51° 69° 66.7° - - -
5/24 12:10am 89 2 G 3 68° 56% - - 52° 68.3° 66.7° - - -
5/24 12:00am 89 2 G 3 67° 60% - - 52° 88.8° 65.9° - - -
5/23 11:50pm 71 3 G 4 67° 59% - - 52° 88.8° 65.9° - - -
5/23 11:40pm 88 2 G 4 66° 61% - - 53° 88.8° 65.9° - - -
5/23 11:30pm 83 2 G 3 67° 59% - - 52° 88.8° 66.2° - - -
5/23 11:20pm 84 2 G 2 67° 58% - - 52° 88.8° 66.5° - - -
5/23 11:10pm 60 1 G 2 69° 52% - - 51° 88.8° 66.5° - - -
5/23 11:00pm 303 1 G 2 69° 54% - - 51° 88.8° 66.5° - - -
5/23 10:50pm 91 2 G 3 69° 52% - - 51° 88.8° 66.5° - - -
5/23 10:40pm 57 3 G 4 69° 52% - - 51° 88.8° 66.5° - - -
5/23 10:30pm 45 4 G 5 68° 56% - - 52° 88.8° 66.5° - - -
5/23 10:20pm 67 3 G 5 68° 55% - - 52° 88.8° 66.5° - - -
5/23 10:10pm 59 3 G 4 68° 55% - - 52° 88.8° 66.5° - - -
5/23 10:00pm 65 2 G 3 69° 56% - - 52° 88.8° 66.5° - - -
5/23 9:50pm 52 2 G 3 68° 57% - - 53° 88.8° 66.5° - - -
5/23 9:40pm 175 2 G 3 68° 58% - - 53° 88.8° 66.5° - - -
5/23 9:30pm 163 1 G 2 69° 57% - - 53° 88.8° 66.5° - - -
5/23 9:20pm 102 2 G 3 69° 55% - - 52° 88.8° 66.5° - - -
5/23 9:10pm 123 0 G 2 71° 52% - - 52° 88.8° 66.5° - - -
5/23 9:00pm 51 2 G 3 71° 51% - - 52° 88.8° 66.5° - - -
5/23 8:50pm 86 1 G 2 71° 51% - - 52° 88.8° 66.5° - - -
5/23 8:40pm 84 2 G 3 71° 51% - - 52° 88.8° 66.5° - - -
5/23 8:30pm 81 2 G 3 72° 50% - - 52° 88.8° 66.5° - - -
5/23 8:20pm 56 2 G 3 72° 50% - - 52° 88.8° 66.5° - - -
5/23 8:10pm 40 2 G 5 71° 50% - - 52° 88.8° 66.5° - - -
5/23 8:00pm 295 1 G 2 72° 49% - - 52° 88.8° 66.5° - - -
5/23 7:50pm 249 2 G 4 73° 47% - - 52° 88.8° 66.5° - - -
5/23 7:40pm 256 3 G 5 74° 47% - - 52° 88.8° 66.5° - - -
5/23 7:30pm 265 3 G 5 74° 49% - - 54° 88.8° 66.5° - - -
5/23 7:20pm 258 5 G 7 75° 48% - - 54° 88.8° 66.5° - - -
5/23 7:10pm 257 6 G 8 76° 45% - - 53° 88.8° 66.5° - - -
5/23 7:00pm 261 6 G 9 77° 45% - - 54° 88.8° 66.5° - - -
5/23 6:50pm 274 5 G 9 79° 44% - - 55° 88.8° 66.5° - - -
5/23 6:40pm 271 6 G 9 80° 43% - - 55° 88.8° 66.5° - - -
5/23 6:30pm 273 5 G 8 81° 41% - - 55° 88.8° 66.5° - - -
5/23 6:20pm 266 5 G 9 81° 39% - - 54° 88.8° 66.5° - - -
5/23 6:10pm 273 5 G 10 82° 36% - - 53° 88.8° 66.5° - - -
5/23 6:00pm 288 3 G 7 83° 36% - - 53° 88.8° 66.5° - - -
5/23 5:50pm 287 4 G 7 83° 36% - - 53° 88.8° 66.5° - - -
5/23 5:40pm 291 3 G 7 84° 32% - - 51° 88.8° 66.5° - - -
5/23 5:30pm 276 3 G 6 83° 33% - - 51° 88.8° 66.5° - - -
5/23 5:20pm 240 4 G 8 84° 32% - - 51° 88.8° 66.5° - - -
5/23 5:10pm 290 2 G 7 83° 32% - - 50° 88.8° 66.5° - - -
5/23 5:00pm 273 3 G 6 83° 32% - - 50° 88.8° 66.5° - - -
5/23 4:50pm 247 4 G 8 83° 32% - - 50° 88.8° 66.5° - - -
5/23 4:40pm 269 5 G 9 82° 33% - - 51° 88.8° 66.5° - - -
5/23 4:30pm 271 5 G 7 82° 34% - - 51° 88.8° 66.5° - - -
5/23 4:20pm 269 5 G 9 81° 41% - - 55° 88.8° 66.5° - - -
5/23 4:10pm 268 5 G 9 81° 42% - - 55° 88.8° 66.5° - - -
5/23 4:00pm 254 6 G 10 80° 41% - - 54° 88.8° 66.5° - - -
5/23 3:50pm 259 6 G 11 80° 39% - - 53° 88.8° 66.5° - - -
5/23 3:40pm 264 7 G 12 80° 39% - - 53° 88.8° 66.5° - - -
5/23 3:30pm 269 8 G 14 79° 44% - - 56° 88.8° 66.5° - - -
5/23 3:20pm 272 9 G 15 79° 45% - - 56° 88.8° 66.5° - - -
5/23 3:10pm 266 9 G 13 79° 48% - - 57° 88.8° 66.5° - - -
5/23 3:00pm 266 9 G 15 79° 47% - - 58° 88.8° 66.5° - - -
5/23 2:50pm 252 7 G 14 80° 47% - - 58° 88.8° 66.5° - - -
5/23 2:40pm 261 9 G 14 80° 48% - - 58° 88.8° 66.5° - - -
5/23 2:30pm 257 9 G 15 80° 47% - - 58° 88.8° 66.5° - - -
5/23 2:20pm 253 8 G 12 80° 46% - - 58° 88.8° 66.5° - - -
5/23 2:10pm 253 6 G 11 81° 45% - - 58° 88.8° 66.5° - - -
5/23 2:00pm 258 9 G 15 81° 46% - - 58° 88.8° 66.5° - - -
5/23 1:50pm 252 7 G 13 84° 42% - - 59° 88.8° 66.5° - - -
5/23 1:40pm 229 5 G 10 84° 41% - - 58° 88.8° 66.5° - - -
5/23 1:30pm 245 6 G 10 84° 41% - - 57° 88.8° 66.5° - - -
5/23 1:20pm 236 6 G 10 84° 41% - - 57° 88.8° 66.5° - - -
5/23 1:10pm 260 9 G 15 84° 39% - - 56° 88.8° 66.5° - - -
5/23 1:00pm 256 7 G 11 84° 36% - - 54° 88.8° 66.5° - - -
5/23 12:50pm 255 8 G 14 85° 34% - - 53° 88.8° 66.5° - - -
5/23 12:40pm 257 10 G 17 85° 32% - - 52° 88.8° 66.5° - - -
5/23 12:30pm 256 8 G 14 87° 29% - - 51° 88.8° 66.5° - - -
5/23 12:20pm 248 6 G 12 88° 24% - - 46° 88.8° 66.5° - - -
5/23 12:10pm 256 8 G 13 87° 23% - - 45° 88.8° 66.5° - - -
5/23 12:00pm 258 7 G 14 87° 24% - - 46° 88.8° 66.5° - - -
5/23 11:50am 252 7 G 11 87° 24% - - 45° 88.8° 66.5° - - -
5/23 11:40am 257 6 G 11 87° 24% - - 46° 88.8° 66.5° - - -
5/23 11:30am 248 7 G 12 88° 25% - - 47° 88.8° 66.5° - - -
5/23 11:20am 245 3 G 6 88° 25% - - 47° 88.5° 66.5° - - -
5/23 11:10am 241 4 G 7 87° 25% - - 47° 88° 66.5° - - -
5/23 11:00am 246 5 G 8 86° 26% - - 47° 86.9° 66.5° - - -
5/23 10:50am 248 5 G 9 86° 27% - - 48° 86.4° 66.5° - - -
5/23 10:40am 252 4 G 7 85° 28% - - 49° 86° 66.5° - - -
5/23 10:30am 244 3 G 6 84° 29% - - 49° 84.7° 66.5° - - -
5/23 10:20am 259 4 G 7 83° 31% - - 49° 83.6° 66.5° - - -
5/23 10:10am 249 5 G 8 81° 32% - - 49° 82° 66.5° - - -
5/23 10:00am 250 5 G 7 81° 33% - - 49° 82° 66.5° - - -
5/23 9:50am 247 4 G 7 81° 32% - - 48° 82° 66.5° - - -
5/23 9:40am 253 5 G 8 80° 32% - - 47° 82° 66.5° - - -
5/23 9:30am 245 6 G 9 81° 32% - - 48° 82° 66.5° - - -
5/23 9:20am 258 4 G 6 81° 32% - - 48° 82° 66.5° - - -
5/23 9:10am 259 3 G 4 81° 32% - - 49° 81.5° 66.5° - - -
5/23 9:00am 272 3 G 4 79° 34% - - 49° 80.4° 66.5° - - -
5/23 8:50am 259 3 G 5 78° 38% - - 50° 78.7° 66.5° - - -
5/23 8:40am 264 3 G 5 77° 39% - - 50° 78.1° 66.5° - - -
5/23 8:30am 254 4 G 6 77° 37% - - 49° 78.1° 66.5° - - -
5/23 8:20am 280 2 G 2 76° 35% - - 47° 77.4° 66.5° - - -
5/23 8:10am 286 1 G 2 75° 36% - - 47° 76.6° 66.5° - - -
5/23 8:00am 300 1 G 3 75° 40% - - 49° 76.2° 66.5° - - -
5/23 7:50am 287 1 G 2 75° 41% - - 49° 76.2° 66.5° - - -
5/23 7:40am 217 1 G 2 75° 40% - - 49° 76.2° 66.5° - - -
5/23 7:30am 115 2 G 5 75° 37% - - 47° 75.4° 66.5° - - -
5/23 7:20am 90 3 G 5 74° 39% - - 47° 75.1° 66.5° - - -
5/23 7:10am 78 2 G 4 73° 39% - - 47° 74.5° 66.5° - - -
5/23 7:00am 65 3 G 4 71° 40% - - 45° 72.3° 66.5° - - -
5/23 6:50am 130 2 G 3 70° 39% - - 44° 72.3° 66.5° - - -
5/23 6:40am 120 2 G 3 70° 38% - - 43° 72.3° 66.5° - - -
5/23 6:30am 59 3 G 5 71° 36% - - 43° 72.3° 66.5° - - -
5/23 6:20am 72 3 G 4 70° 38% - - 43° 71.9° 66.5° - - -
5/23 6:10am 76 2 G 3 69° 37% - - 42° 71.9° 66.5° - - -
5/23 6:00am 94 0 G 2 68° 38% - - 41° 71.9° 66.5° - - -